createdAt,value
2018-07-12T00:01:47.089Z,83.30
2018-07-12T00:04:14.273Z,83.20
2018-07-12T00:06:41.474Z,83.00
2018-07-12T00:09:08.661Z,83.00
2018-07-12T00:11:35.845Z,83.10
2018-07-12T00:14:03.037Z,83.10
2018-07-12T00:16:30.224Z,83.30
2018-07-12T00:18:57.419Z,83.30
2018-07-12T00:21:24.604Z,83.40
2018-07-12T00:23:51.805Z,83.50
2018-07-12T00:26:18.994Z,83.30
2018-07-12T00:28:46.182Z,83.20
2018-07-12T00:31:13.370Z,83.20
2018-07-12T00:33:40.611Z,83.10
2018-07-12T00:36:07.738Z,83.00
2018-07-12T00:38:34.941Z,82.90
2018-07-12T00:41:02.117Z,82.90
2018-07-12T00:43:29.311Z,82.90
2018-07-12T00:45:56.485Z,83.00
2018-07-12T00:48:23.693Z,83.10
2018-07-12T00:50:50.885Z,83.10
2018-07-12T00:53:18.061Z,83.20
2018-07-12T00:55:45.254Z,83.20
2018-07-12T00:58:12.433Z,83.20
2018-07-12T01:00:39.626Z,83.10
2018-07-12T01:03:06.805Z,83.20
2018-07-12T01:05:33.989Z,83.30
2018-07-12T01:08:01.169Z,83.40
2018-07-12T01:10:28.357Z,83.30
2018-07-12T01:12:55.666Z,83.50
2018-07-12T01:15:22.867Z,83.50
2018-07-12T01:17:50.046Z,83.40
2018-07-12T01:20:17.236Z,83.30
2018-07-12T01:22:44.477Z,83.10
2018-07-12T01:25:11.667Z,83.10
2018-07-12T01:27:38.842Z,83.00
2018-07-12T01:30:06.029Z,82.90
2018-07-12T01:32:33.206Z,82.90
2018-07-12T01:35:00.405Z,82.80
2018-07-12T01:37:27.593Z,82.70
2018-07-12T01:39:54.797Z,82.70
2018-07-12T01:42:21.970Z,82.70
2018-07-12T01:44:49.161Z,82.70
2018-07-12T01:47:16.359Z,82.70
2018-07-12T01:49:43.541Z,82.60
2018-07-12T01:52:10.740Z,82.50
2018-07-12T01:54:37.932Z,82.40
2018-07-12T01:57:05.125Z,82.40
2018-07-12T01:59:32.301Z,82.40
2018-07-12T02:01:59.489Z,82.40
2018-07-12T02:04:26.666Z,82.40
2018-07-12T02:06:54.014Z,82.30
2018-07-12T02:09:21.190Z,82.30
2018-07-12T02:11:48.385Z,81.60
2018-07-12T02:14:15.558Z,82.40
2018-07-12T02:16:42.784Z,82.50
2018-07-12T02:19:09.973Z,82.10
2018-07-12T02:21:37.173Z,82.60
2018-07-12T02:24:04.362Z,82.70
2018-07-12T02:26:31.545Z,82.60
2018-07-12T02:28:58.794Z,82.50
2018-07-12T02:31:25.978Z,82.50
2018-07-12T02:33:53.189Z,82.40
2018-07-12T02:36:20.385Z,82.40
2018-07-12T02:38:47.570Z,82.40
2018-07-12T02:41:14.769Z,82.50
2018-07-12T02:43:41.953Z,82.60
2018-07-12T02:46:09.149Z,82.40
2018-07-12T02:48:36.334Z,82.30
2018-07-12T02:51:03.517Z,82.30
2018-07-12T02:53:30.707Z,82.20
2018-07-12T02:55:57.992Z,82.30
2018-07-12T02:58:25.124Z,82.20
2018-07-12T03:00:52.305Z,82.00
2018-07-12T03:03:19.488Z,81.80
2018-07-12T03:05:46.679Z,81.50
2018-07-12T03:08:13.871Z,81.50
2018-07-12T03:10:41.039Z,81.40
2018-07-12T03:13:08.230Z,81.40
2018-07-12T03:15:35.409Z,81.40
2018-07-12T03:18:02.620Z,81.50
2018-07-12T03:20:29.802Z,81.50
2018-07-12T03:22:56.984Z,81.70
2018-07-12T03:25:24.177Z,81.70
2018-07-12T03:27:51.364Z,81.50
2018-07-12T03:30:18.537Z,81.50
2018-07-12T03:32:45.736Z,81.40
2018-07-12T03:35:12.905Z,82.40
2018-07-12T03:37:40.093Z,81.60
2018-07-12T03:40:07.286Z,81.50
2018-07-12T03:42:34.464Z,81.50
2018-07-12T03:45:01.680Z,81.50
2018-07-12T03:47:28.872Z,81.50
2018-07-12T03:49:56.060Z,81.50
2018-07-12T03:52:23.247Z,81.50
2018-07-12T03:54:50.428Z,81.30
2018-07-12T03:57:17.605Z,81.20
2018-07-12T03:59:44.798Z,81.10
2018-07-12T04:02:11.975Z,81.20
2018-07-12T04:04:39.157Z,81.10
2018-07-12T04:07:06.345Z,81.10
2018-07-12T04:09:33.533Z,81.10
2018-07-12T04:12:00.705Z,81.00
2018-07-12T04:16:55.332Z,81.00
2018-07-12T04:19:22.532Z,80.90
2018-07-12T04:21:49.770Z,81.10
2018-07-12T04:24:16.961Z,81.10
2018-07-12T04:26:44.149Z,81.20
2018-07-12T04:29:11.334Z,81.40
2018-07-12T04:31:38.513Z,81.40
2018-07-12T04:36:33.234Z,81.50
2018-07-12T04:39:00.421Z,81.70
2018-07-12T04:41:27.613Z,81.90
2018-07-12T04:43:54.809Z,82.00
2018-07-12T04:46:21.995Z,82.20
2018-07-12T04:48:49.198Z,82.20
2018-07-12T04:51:16.458Z,82.20
2018-07-12T04:53:43.805Z,82.30
2018-07-12T04:56:10.990Z,82.50
2018-07-12T04:58:38.176Z,82.50
2018-07-12T05:01:05.358Z,82.50
2018-07-12T05:03:32.532Z,82.60
2018-07-12T05:05:59.737Z,82.60
2018-07-12T05:08:26.914Z,82.70
2018-07-12T05:10:54.100Z,82.80
2018-07-12T05:13:21.288Z,83.00
2018-07-12T05:15:48.485Z,83.00
2018-07-12T05:18:15.663Z,83.00
2018-07-12T05:20:42.853Z,83.20
2018-07-12T05:23:10.033Z,83.30
2018-07-12T05:25:37.220Z,83.30
2018-07-12T05:28:04.400Z,83.40
2018-07-12T05:30:31.597Z,83.30
2018-07-12T05:32:58.781Z,83.30
2018-07-12T05:35:26.945Z,83.20
2018-07-12T05:37:55.098Z,83.30
2018-07-12T05:40:23.270Z,83.30
2018-07-12T05:42:51.430Z,83.40
2018-07-12T05:45:19.577Z,83.40
2018-07-12T05:47:47.730Z,83.20
2018-07-12T05:50:15.906Z,83.20
2018-07-12T05:52:44.065Z,83.20
2018-07-12T05:55:12.234Z,83.30
2018-07-12T05:57:40.462Z,83.30
2018-07-12T06:00:08.604Z,83.20
2018-07-12T06:02:36.752Z,83.50
2018-07-12T06:05:04.997Z,83.50
2018-07-12T06:07:33.201Z,83.50
2018-07-12T06:10:01.533Z,83.50
2018-07-12T06:12:29.689Z,83.30
2018-07-12T06:14:57.849Z,83.30
2018-07-12T06:17:26.023Z,83.50
2018-07-12T06:19:54.181Z,83.50
2018-07-12T06:22:22.355Z,83.40
2018-07-12T06:24:50.581Z,83.00
2018-07-12T06:27:18.737Z,84.00
2018-07-12T06:29:46.884Z,83.50
2018-07-12T06:34:42.996Z,83.50
2018-07-12T06:37:11.417Z,83.80
2018-07-12T06:39:39.550Z,83.90
2018-07-12T06:42:08.096Z,84.00
2018-07-12T06:44:36.711Z,84.10
2018-07-12T06:47:05.274Z,83.90
2018-07-12T06:49:34.532Z,83.60
2018-07-12T06:52:02.835Z,83.30
2018-07-12T06:54:30.998Z,83.10
2018-07-12T06:56:59.170Z,82.80
2018-07-12T06:59:27.349Z,82.60
2018-07-12T07:01:55.499Z,82.50
2018-07-12T07:06:51.647Z,82.70
2018-07-12T07:09:19.804Z,81.80
2018-07-12T07:11:48.142Z,81.20
2018-07-12T07:14:16.284Z,81.10
2018-07-12T07:16:44.425Z,80.80
2018-07-12T07:19:12.681Z,80.80
2018-07-12T07:21:40.841Z,81.00
2018-07-12T07:24:09.021Z,81.00
2018-07-12T07:26:37.598Z,80.80
2018-07-12T07:29:05.757Z,81.00
2018-07-12T07:31:33.915Z,80.90
2018-07-12T07:34:02.090Z,80.90
2018-07-12T07:36:30.237Z,81.00
2018-07-12T07:38:58.388Z,80.90
2018-07-12T07:41:26.597Z,80.70
2018-07-12T07:43:54.749Z,80.40
2018-07-12T07:46:23.136Z,80.40
2018-07-12T07:48:51.300Z,80.50
2018-07-12T07:51:19.626Z,80.50
2018-07-12T07:53:47.766Z,80.30
2018-07-12T07:56:15.937Z,80.40
2018-07-12T07:58:44.093Z,80.20
2018-07-12T08:01:12.333Z,80.30
2018-07-12T08:03:40.489Z,79.40
2018-07-12T08:06:08.648Z,78.50
2018-07-12T08:08:36.784Z,78.40
2018-07-12T08:11:04.944Z,78.80
2018-07-12T08:13:33.195Z,78.30
2018-07-12T08:16:01.348Z,78.40
2018-07-12T08:18:29.504Z,78.40
2018-07-12T08:23:25.665Z,78.40
2018-07-12T08:25:53.825Z,78.20
2018-07-12T08:28:25.480Z,77.80
2018-07-12T08:33:22.327Z,76.70
2018-07-12T08:35:50.508Z,76.40
2018-07-12T08:38:18.665Z,76.00
2018-07-12T08:40:47.250Z,75.80
2018-07-12T08:43:15.404Z,75.90
2018-07-12T08:45:44.101Z,76.10
2018-07-12T08:48:12.275Z,75.70
2018-07-12T08:50:40.425Z,74.90
2018-07-12T08:53:08.716Z,75.20
2018-07-12T08:55:36.857Z,75.00
2018-07-12T08:58:05.010Z,74.80
2018-07-12T09:00:33.222Z,74.80
2018-07-12T09:03:01.486Z,74.50
2018-07-12T09:05:29.520Z,73.90
2018-07-12T09:07:57.696Z,73.50
2018-07-12T09:10:25.917Z,73.50
2018-07-12T09:12:54.085Z,73.30
2018-07-12T09:15:22.287Z,73.30
2018-07-12T09:17:50.565Z,72.80
2018-07-12T09:20:18.722Z,72.10
2018-07-12T09:22:46.884Z,71.30
2018-07-12T09:25:15.052Z,71.00
2018-07-12T09:27:43.217Z,71.00
2018-07-12T09:30:11.376Z,71.10
2018-07-12T09:32:39.566Z,71.10
2018-07-12T09:35:07.769Z,70.70
2018-07-12T09:37:36.129Z,71.00
2018-07-12T09:40:04.395Z,70.70
2018-07-12T09:42:32.551Z,70.80
2018-07-12T09:45:00.766Z,70.70
2018-07-12T09:47:29.049Z,70.20
2018-07-12T09:49:57.181Z,70.20
2018-07-12T09:52:30.683Z,70.10
2018-07-12T09:54:58.835Z,69.90
2018-07-12T09:57:38.532Z,69.40
2018-07-12T10:00:06.719Z,69.10
2018-07-12T10:02:40.385Z,69.10
2018-07-12T10:06:14.538Z,69.10
2018-07-12T10:08:52.868Z,68.80
2018-07-12T10:11:26.827Z,68.80
2018-07-12T10:14:00.541Z,69.10
2018-07-12T10:16:34.204Z,69.40
2018-07-12T10:19:02.369Z,68.80
2018-07-12T10:21:30.545Z,69.10
2018-07-12T10:23:58.704Z,69.10
2018-07-12T10:26:26.879Z,69.10
2018-07-12T10:28:55.038Z,68.80
2018-07-12T10:31:23.185Z,68.80
2018-07-12T10:33:51.337Z,69.20
2018-07-12T10:36:19.510Z,68.80
2018-07-12T10:38:47.949Z,68.70
2018-07-12T10:41:16.129Z,68.70
2018-07-12T10:43:44.351Z,69.20
2018-07-12T10:46:12.753Z,69.10
2018-07-12T10:48:40.913Z,67.80
2018-07-12T10:51:09.142Z,67.50
2018-07-12T10:53:37.289Z,67.40
2018-07-12T10:56:05.678Z,66.80
2018-07-12T10:58:33.822Z,66.70
2018-07-12T11:01:01.976Z,67.10
2018-07-12T11:03:30.197Z,66.90
2018-07-12T11:05:58.373Z,66.80
2018-07-12T11:08:26.533Z,66.70
2018-07-12T11:10:54.692Z,66.90
2018-07-12T11:13:34.241Z,66.90
2018-07-12T11:16:02.422Z,66.10
2018-07-12T11:18:30.594Z,65.50
2018-07-12T11:20:58.753Z,65.20
2018-07-12T11:23:26.921Z,64.60
2018-07-12T11:25:55.089Z,64.40
2018-07-12T11:28:23.257Z,64.80
2018-07-12T11:30:51.410Z,65.50
2018-07-12T11:33:32.757Z,65.50
2018-07-12T11:36:00.924Z,65.50
2018-07-12T11:38:29.090Z,65.90
2018-07-12T11:40:57.258Z,64.60
2018-07-12T11:43:25.532Z,64.80
2018-07-12T11:45:53.702Z,65.20
2018-07-12T11:48:22.939Z,65.10
2018-07-12T11:50:51.161Z,64.20
2018-07-12T11:53:19.285Z,63.70
2018-07-12T11:55:47.637Z,63.80
2018-07-12T11:58:15.810Z,63.80
2018-07-12T12:00:43.999Z,64.10
2018-07-12T12:03:12.157Z,64.50
2018-07-12T12:05:40.539Z,64.70
2018-07-12T12:08:08.689Z,64.40
2018-07-12T12:10:36.956Z,64.10
2018-07-12T12:13:05.110Z,65.00
2018-07-12T12:15:33.414Z,65.20
2018-07-12T12:18:01.705Z,65.00
2018-07-12T12:20:29.857Z,65.20
2018-07-12T12:22:58.018Z,64.80
2018-07-12T12:25:26.410Z,63.70
2018-07-12T12:27:55.028Z,62.90
2018-07-12T12:30:23.230Z,62.60
2018-07-12T12:32:51.394Z,62.60
2018-07-12T12:35:19.557Z,62.50
2018-07-12T12:42:43.857Z,61.40
2018-07-12T12:45:12.222Z,60.80
2018-07-12T12:47:40.375Z,60.80
2018-07-12T12:50:08.530Z,60.60
2018-07-12T12:52:36.673Z,59.90
2018-07-12T12:55:04.989Z,59.80
2018-07-12T12:57:33.159Z,59.80
2018-07-12T13:00:01.362Z,59.40
2018-07-12T13:02:29.473Z,59.10
2018-07-12T13:07:25.578Z,59.40
2018-07-12T13:09:53.753Z,59.40
2018-07-12T13:12:21.905Z,59.20
2018-07-12T13:14:50.072Z,58.90
2018-07-12T13:17:18.214Z,59.00
2018-07-12T13:19:46.362Z,58.90
2018-07-12T13:22:14.505Z,58.60
2018-07-12T13:24:42.661Z,58.50
2018-07-12T13:27:10.812Z,58.70
2018-07-12T13:29:38.968Z,58.80
2018-07-12T13:32:07.125Z,58.80
2018-07-12T13:34:35.274Z,59.00
2018-07-12T13:37:03.422Z,59.20
2018-07-12T13:39:31.709Z,59.20
2018-07-12T13:42:00.688Z,59.40
2018-07-12T13:44:28.835Z,59.40
2018-07-12T13:46:56.997Z,59.40
2018-07-12T13:49:25.142Z,59.60
2018-07-12T13:51:53.498Z,59.70
2018-07-12T13:54:21.668Z,59.30
2018-07-12T13:56:50.246Z,59.40
2018-07-12T13:59:18.424Z,59.10
2018-07-12T14:01:46.597Z,58.40
2018-07-12T14:04:14.788Z,58.20
2018-07-12T14:06:42.941Z,58.20
2018-07-12T14:09:12.296Z,57.30
2018-07-12T14:11:40.465Z,56.50
2018-07-12T14:14:09.049Z,57.10
2018-07-12T14:16:37.204Z,57.20
2018-07-12T14:19:05.625Z,56.70
2018-07-12T14:21:33.734Z,56.50
2018-07-12T14:24:01.878Z,56.20
2018-07-12T14:26:30.025Z,56.00
2018-07-12T14:28:58.183Z,56.10
2018-07-12T14:31:26.777Z,55.80
2018-07-12T14:33:54.993Z,55.60
2018-07-12T14:36:23.253Z,55.50
2018-07-12T14:38:51.456Z,55.30
2018-07-12T14:41:19.669Z,55.20
2018-07-12T14:43:47.908Z,55.10
2018-07-12T14:46:16.030Z,55.40
2018-07-12T14:48:44.197Z,55.00
2018-07-12T14:51:12.348Z,55.50
2018-07-12T14:53:40.510Z,56.30
2018-07-12T14:56:08.662Z,55.40
2018-07-12T14:58:36.837Z,54.90
2018-07-12T15:01:05.007Z,54.40
2018-07-12T15:03:33.265Z,54.30
2018-07-12T15:06:01.439Z,54.40
2018-07-12T15:10:57.522Z,53.80
2018-07-12T15:13:25.669Z,53.90
2018-07-12T15:15:53.821Z,54.10
2018-07-12T15:18:21.982Z,54.20
2018-07-12T15:20:50.262Z,54.20
2018-07-12T15:23:18.545Z,54.30
2018-07-12T15:25:46.720Z,54.80
2018-07-12T15:28:14.973Z,55.20
2018-07-12T15:30:43.128Z,55.50
2018-07-12T15:33:11.293Z,55.60
2018-07-12T15:35:39.527Z,55.80
2018-07-12T15:38:07.648Z,56.20
2018-07-12T15:40:35.937Z,57.70
2018-07-12T15:43:04.089Z,59.10
2018-07-12T15:45:32.250Z,60.00
2018-07-12T15:48:00.395Z,60.10
2018-07-12T15:50:28.601Z,60.60
2018-07-12T15:52:56.781Z,60.70
2018-07-12T15:55:24.985Z,60.40
2018-07-12T15:57:53.133Z,60.30
2018-07-12T16:00:21.293Z,60.80
2018-07-12T16:02:49.424Z,61.70
2018-07-12T16:05:17.588Z,62.60
2018-07-12T16:10:13.668Z,63.50
2018-07-12T16:12:41.825Z,64.00
2018-07-12T16:15:09.994Z,64.70
2018-07-12T16:20:06.195Z,65.50
2018-07-12T16:22:34.404Z,66.50
2018-07-12T16:25:02.544Z,67.40
2018-07-12T16:27:30.761Z,68.40
2018-07-12T16:29:58.985Z,69.30
2018-07-12T16:32:27.113Z,69.40
2018-07-12T16:34:55.277Z,69.50
2018-07-12T16:39:51.354Z,70.10
2018-07-12T16:42:19.518Z,71.70
2018-07-12T16:44:47.677Z,70.80
2018-07-12T16:47:15.824Z,70.80
2018-07-12T16:49:44.002Z,71.00
2018-07-12T16:52:12.141Z,71.60
2018-07-12T16:54:40.298Z,72.10
2018-07-12T16:57:08.451Z,72.50
2018-07-12T16:59:36.713Z,73.00
2018-07-12T17:02:04.857Z,73.40
2018-07-12T17:04:33.014Z,73.40
2018-07-12T17:07:01.190Z,73.70
2018-07-12T17:09:29.351Z,74.40
2018-07-12T17:11:57.514Z,74.50
2018-07-12T17:14:25.715Z,74.70
2018-07-12T17:16:53.910Z,75.10
2018-07-12T17:19:22.063Z,75.50
2018-07-12T17:21:50.217Z,75.40
2018-07-12T17:24:18.370Z,75.40
2018-07-12T17:26:46.530Z,76.00
2018-07-12T17:29:14.677Z,76.50
2018-07-12T17:31:42.837Z,76.90
2018-07-12T17:34:10.988Z,76.60
2018-07-12T17:36:39.162Z,76.70
2018-07-12T17:39:07.904Z,77.10
2018-07-12T17:41:36.065Z,77.50
2018-07-12T17:44:04.234Z,77.40
2018-07-12T17:46:32.389Z,76.80
2018-07-12T17:49:00.548Z,76.70
2018-07-12T17:51:28.715Z,77.00
2018-07-12T17:53:56.872Z,77.20
2018-07-12T17:56:25.042Z,77.20
2018-07-12T17:58:53.190Z,77.40
2018-07-12T18:01:21.350Z,78.00
2018-07-12T18:03:49.501Z,78.50
2018-07-12T18:06:17.685Z,78.70
2018-07-12T18:08:45.850Z,78.90
2018-07-12T18:11:14.012Z,78.90
2018-07-12T18:13:42.221Z,78.10
2018-07-12T18:16:10.385Z,77.90
2018-07-12T18:18:38.729Z,78.10
2018-07-12T18:21:07.137Z,78.20
2018-07-12T18:23:35.284Z,78.20
2018-07-12T18:26:03.465Z,78.10
2018-07-12T18:28:31.675Z,77.90
2018-07-12T18:30:59.832Z,78.00
2018-07-12T18:33:28.079Z,78.10
2018-07-12T18:35:56.193Z,78.20
2018-07-12T18:38:24.357Z,77.70
2018-07-12T18:40:52.540Z,77.10
2018-07-12T18:43:20.689Z,76.80
2018-07-12T18:45:48.944Z,76.30
2018-07-12T18:48:17.095Z,75.90
2018-07-12T18:50:45.302Z,75.90
2018-07-12T18:53:13.449Z,76.40
2018-07-12T18:55:41.858Z,76.60
2018-07-12T18:58:10.048Z,76.50
2018-07-12T19:00:47.226Z,76.50
2018-07-12T19:03:15.466Z,76.80
2018-07-12T19:05:43.637Z,76.70
2018-07-12T19:08:11.829Z,76.80
2018-07-12T19:10:40.023Z,77.00
2018-07-12T19:13:08.186Z,77.20
2018-07-12T19:15:36.352Z,77.20
2018-07-12T19:18:04.681Z,77.30
2018-07-12T19:20:32.917Z,77.50
2018-07-12T19:23:01.076Z,77.10
2018-07-12T19:25:29.217Z,76.70
2018-07-12T19:27:57.417Z,76.50
2018-07-12T19:30:25.588Z,76.70
2018-07-12T19:32:53.749Z,76.90
2018-07-12T19:35:21.909Z,77.00
2018-07-12T19:37:50.348Z,76.50
2018-07-12T19:40:18.585Z,75.70
2018-07-12T19:42:46.758Z,76.20
2018-07-12T19:45:15.022Z,75.10
2018-07-12T19:47:43.209Z,75.00
2018-07-12T19:50:11.364Z,75.00
2018-07-12T19:52:39.520Z,75.00
2018-07-12T19:55:07.686Z,75.20
2018-07-12T19:57:36.137Z,75.20
2018-07-12T20:00:04.701Z,75.10
2018-07-12T20:02:32.872Z,74.80
2018-07-12T20:05:01.050Z,74.70
2018-07-12T20:07:29.233Z,75.30
2018-07-12T20:09:57.393Z,74.50
2018-07-12T20:12:25.545Z,74.40
2018-07-12T20:14:53.714Z,74.40
2018-07-12T20:17:22.134Z,74.50
2018-07-12T20:19:50.350Z,74.60
2018-07-12T20:22:18.517Z,74.50
2018-07-12T20:24:46.809Z,74.50
2018-07-12T20:27:14.982Z,74.50
2018-07-12T20:29:43.125Z,74.40
2018-07-12T20:32:11.282Z,74.20
2018-07-12T20:34:39.432Z,74.10
2018-07-12T20:37:07.605Z,74.00
2018-07-12T20:39:35.764Z,74.00
2018-07-12T20:42:03.917Z,74.10
2018-07-12T20:44:32.096Z,74.20
2018-07-12T20:47:00.269Z,74.30
2018-07-12T20:49:28.443Z,74.30
2018-07-12T20:51:56.651Z,74.60
2018-07-12T20:54:24.834Z,74.80
2018-07-12T20:56:53.001Z,74.90
2018-07-12T20:59:21.273Z,75.00
2018-07-12T21:01:49.645Z,75.10
2018-07-12T21:04:17.788Z,75.30
2018-07-12T21:06:45.946Z,75.40
2018-07-12T21:09:14.172Z,75.40
2018-07-12T21:11:42.334Z,75.60
2018-07-12T21:14:10.546Z,75.50
2018-07-12T21:16:38.710Z,75.50
2018-07-12T21:19:07.109Z,75.50
2018-07-12T21:21:35.284Z,75.60
2018-07-12T21:24:03.465Z,75.60
2018-07-12T21:26:31.641Z,75.80
2018-07-12T21:28:59.798Z,75.70
2018-07-12T21:31:27.953Z,75.50
2018-07-12T21:33:56.153Z,75.60
2018-07-12T21:36:24.320Z,75.50
2018-07-12T21:38:52.477Z,75.50
2018-07-12T21:41:20.624Z,75.50
2018-07-12T21:43:48.817Z,75.50
2018-07-12T21:46:16.969Z,75.40
2018-07-12T21:48:45.125Z,75.30
2018-07-12T21:51:13.282Z,75.10
2018-07-12T21:53:41.442Z,75.00
2018-07-12T21:56:09.593Z,74.90
2018-07-12T21:58:37.762Z,74.80
2018-07-12T22:01:05.917Z,74.80
2018-07-12T22:03:34.129Z,74.70
2018-07-12T22:06:02.286Z,74.70
2018-07-12T22:08:30.789Z,75.60
2018-07-12T22:11:03.260Z,74.80
2018-07-12T22:13:32.354Z,74.70
2018-07-12T22:16:00.505Z,74.10
2018-07-12T22:18:28.677Z,75.40
2018-07-12T22:20:56.919Z,74.40
2018-07-12T22:23:25.173Z,74.50
2018-07-12T22:25:53.472Z,74.70
2018-07-12T22:28:21.736Z,74.80
2018-07-12T22:30:49.926Z,74.90
2018-07-12T22:33:18.078Z,74.80
2018-07-12T22:35:46.237Z,74.70
2018-07-12T22:38:14.391Z,74.70
2018-07-12T22:40:42.580Z,74.60
2018-07-12T22:45:38.685Z,74.50
2018-07-12T22:48:06.887Z,74.40
2018-07-12T22:50:34.984Z,74.40
2018-07-12T22:53:03.165Z,74.40
2018-07-12T22:55:31.325Z,74.30
2018-07-12T22:57:59.513Z,74.30
2018-07-12T23:00:27.665Z,74.10
2018-07-12T23:05:23.737Z,75.00
2018-07-12T23:07:51.911Z,74.10
2018-07-12T23:10:20.073Z,73.90
2018-07-12T23:12:48.241Z,74.00
2018-07-12T23:15:16.404Z,74.00
2018-07-12T23:17:44.546Z,74.00
2018-07-12T23:20:12.718Z,74.00
2018-07-12T23:22:40.980Z,74.10
2018-07-12T23:25:09.157Z,74.20
2018-07-12T23:27:37.309Z,74.20
2018-07-12T23:30:05.464Z,74.30
2018-07-12T23:32:33.620Z,74.40
2018-07-12T23:35:01.777Z,74.40
2018-07-12T23:37:29.917Z,74.40
2018-07-12T23:39:58.079Z,74.80
2018-07-12T23:42:26.221Z,74.50
2018-07-12T23:44:54.385Z,74.60
2018-07-12T23:47:22.564Z,74.70
2018-07-12T23:52:18.636Z,74.50
2018-07-12T23:54:46.803Z,74.70
2018-07-12T23:57:14.962Z,74.80
2018-07-12T23:59:43.122Z,74.80
